Meteorología y climatología de Navarra
Datos de la estación - Meteo Navarra

Estación de Etxarri-Aranatz GN

Altitud 505 m.


Datos desde el 23/05/2020 hasta el 24/05/2020 en horario solar
Los datos son PROVISIONALES

Anterior Página 1 de 1 Siguiente Descargar: Formato para Excel 2000 o superior   Formato csv   Formato para OpenOffice Calc
Fecha Temperatura Humedad relativa Radiación global Insolación Precipitación Vel. viento 10 m Vel. viento 10 m Dir. viento 10 m
ºC % W/m² s l/m² m/s km/h º
23/05/2020 0:00 15.2 91 0.0 0 0.0 1.8 6.6 258
23/05/2020 0:10 15.3 91 0.0 0 0.0 1.8 6.5 257
23/05/2020 0:20 15.2 91 0.0 0 0.0 1.7 6.0 255
23/05/2020 0:30 15.1 91 0.0 0 0.0 1.7 6.2 256
23/05/2020 0:40 15.2 92 0.0 0 0.0 2.0 7.1 255
23/05/2020 0:50 15.2 92 0.0 0 0.0 1.9 7.0 255
23/05/2020 1:00 15.1 92 0.0 0 0.0 1.5 5.3 263
23/05/2020 1:10 15.2 92 0.0 0 0.0 1.8 6.6 259
23/05/2020 1:20 14.9 92 0.0 0 0.0 1.8 6.3 257
23/05/2020 1:30 15.0 92 0.0 0 0.0 1.5 5.3 257
23/05/2020 1:40 15.1 92 0.0 0 0.0 1.6 5.8 254
23/05/2020 1:50 14.9 92 0.0 0 0.0 1.6 5.7 248
23/05/2020 2:00 14.9 91 0.0 0 0.0 1.9 6.8 256
23/05/2020 2:10 14.9 91 0.0 0 0.0 2.1 7.5 250
23/05/2020 2:20 14.9 91 0.0 0 0.0 2.4 8.5 247
23/05/2020 2:30 14.9 91 0.0 0 0.0 1.8 6.6 248
23/05/2020 2:40 14.9 91 0.0 0 0.0 1.4 5.0 255
23/05/2020 2:50 14.9 91 0.0 0 0.0 1.8 6.4 268
23/05/2020 3:00 14.8 91 0.0 0 0.0 1.9 6.8 255
23/05/2020 3:10 14.8 92 0.0 0 0.0 1.5 5.5 254
23/05/2020 3:20 14.7 92 0.0 0 0.0 1.7 6.0 255
23/05/2020 3:30 14.7 92 0.0 0 0.0 1.5 5.4 255
23/05/2020 3:40 14.8 92 0.0 0 0.0 1.8 6.3 256
23/05/2020 3:50 14.8 92 0.0 0 0.0 1.6 5.7 257
23/05/2020 4:00 14.8 92 0.0 0 0.0 1.5 5.2 262
23/05/2020 4:10 14.8 92 0.0 0 0.0 1.5 5.5 257
23/05/2020 4:20 14.9 92 0.0 0 0.0 1.8 6.4 256
23/05/2020 4:30 14.8 92 0.0 0 0.0 1.7 6.0 257
23/05/2020 4:40 14.8 92 0.0 0 0.0 1.7 5.9 257
23/05/2020 4:50 14.8 92 0.0 0 0.0 2.0 7.1 254
23/05/2020 5:00 14.8 93 0.0 0 0.0 2.1 7.6 244
23/05/2020 5:10 14.6 93 0.0 0 0.0 1.7 6.2 251
23/05/2020 5:20 14.6 92 0.0 0 0.0 1.1 4.0 256
23/05/2020 5:30 14.7 92 0.0 0 0.0 1.0 3.5 255
23/05/2020 5:40 14.9 91 16.5 0 0.0 1.3 4.7 249
23/05/2020 5:50 15.0 91 20.8 0 0.0 1.5 5.4 246
23/05/2020 6:00 14.9 91 23.6 0 0.0 1.6 5.7 245
23/05/2020 6:10 14.9 91 27.2 0 0.0 1.8 6.4 245
23/05/2020 6:20 15.0 90 25.3 0 0.0 1.5 5.4 263
23/05/2020 6:30 15.0 89 35.8 0 0.0 1.8 6.5 250
23/05/2020 6:40 15.0 90 46.7 0 0.0 2.1 7.6 253
23/05/2020 6:50 15.0 89 45.9 0 0.0 2.1 7.5 252
23/05/2020 7:00 15.1 89 49.9 0 0.0 1.7 6.2 251
23/05/2020 7:10 15.3 89 66.7 0 0.0 2.3 8.2 255
23/05/2020 7:20 15.2 89 84.5 0 0.0 1.3 4.6 268
23/05/2020 7:30 15.6 88 121.7 0 0.0 1.2 4.2 279
23/05/2020 7:40 15.9 87 137.8 0 0.0 1.7 6.0 269
23/05/2020 7:50 15.9 87 182.3 0 0.0 1.7 5.9 269
23/05/2020 8:00 16.2 87 222.2 0 0.0 1.7 6.0 265
23/05/2020 8:10 16.3 87 198.8 0 0.0 1.6 5.7 271
23/05/2020 8:20 16.3 88 250.2 0 0.0 2.2 7.7 258
23/05/2020 8:30 16.6 87 254.3 0 0.0 1.3 4.7 276
23/05/2020 8:40 16.8 77 206.4 0 0.0 2.8 10.2 327
23/05/2020 8:50 16.7 73 216.7 0 0.0 3.6 12.9 325
23/05/2020 9:00 16.3 73 231.8 0 0.0 4.3 15.5 333
23/05/2020 9:10 16.0 72 271.6 0 0.0 4.7 16.8 325
23/05/2020 9:20 15.7 74 227.5 0 0.0 4.4 15.9 323
23/05/2020 9:30 15.7 74 258.0 0 0.0 2.7 9.5 312
23/05/2020 9:40 15.7 76 250.2 0 0.0 2.3 8.3 303
23/05/2020 9:50 15.7 76 249.0 0 0.0 2.4 8.7 306
23/05/2020 10:00 15.6 76 256.2 0 0.0 2.7 9.9 312
23/05/2020 10:10 15.5 75 266.0 0 0.0 2.8 10.0 309
23/05/2020 10:20 15.5 76 238.5 0 0.0 3.3 11.7 316
23/05/2020 10:30 15.4 75 249.2 0 0.0 3.0 10.7 317
23/05/2020 10:40 15.1 75 243.5 0 0.0 3.7 13.5 317
23/05/2020 10:50 15.3 74 332.5 0 0.0 4.0 14.3 320
23/05/2020 11:00 15.6 72 422.7 0 0.0 3.6 12.9 328
23/05/2020 11:10 15.6 71 471.4 124 0.0 3.7 13.2 317
23/05/2020 11:20 15.7 71 466.3 148 0.0 3.4 12.3 323
23/05/2020 11:30 15.9 70 363.7 0 0.0 3.2 11.6 326
23/05/2020 11:40 15.8 71 368.7 0 0.0 4.0 14.2 330
23/05/2020 11:50 15.7 71 497.2 248 0.0 3.6 13.0 330
23/05/2020 12:00 16.4 69 488.0 232 0.0 2.9 10.3 329
23/05/2020 12:10 16.6 69 387.5 0 0.0 2.3 8.2 338
23/05/2020 12:20 16.0 71 228.9 0 0.0 2.9 10.3 340
23/05/2020 12:30 15.9 72 202.1 0 0.0 1.1 4.0 2
23/05/2020 12:40 16.3 71 309.1 0 0.0 1.2 4.5 353
23/05/2020 12:50 16.6 70 262.6 0 0.0 1.1 4.0 355
23/05/2020 13:00 16.3 71 217.5 0 0.0 1.4 4.9 347
23/05/2020 13:10 15.8 73 250.8 0 0.0 1.2 4.4 357
23/05/2020 13:20 15.9 72 253.0 0 0.0 1.2 4.2 3
23/05/2020 13:30 15.7 72 358.1 0 0.0 1.3 4.7 14
23/05/2020 13:40 15.7 71 395.7 0 0.0 1.3 4.5 10
23/05/2020 13:50 16.0 72 654.3 522 0.0 1.2 4.1 19
23/05/2020 14:00 16.1 70 318.5 0 0.0 1.1 4.0 345
23/05/2020 14:10 15.7 70 287.4 0 0.0 0.8 3.0 7
23/05/2020 14:20 15.7 70 316.5 0 0.0 1.6 5.8 12
23/05/2020 14:30 15.7 69 467.5 278 0.0 1.3 4.8 10
23/05/2020 14:40 15.4 72 378.3 164 0.0 1.7 6.1 24
23/05/2020 14:50 15.3 72 399.6 216 0.0 2.1 7.6 32
23/05/2020 15:00 15.4 71 352.7 0 0.0 1.1 4.0 25
23/05/2020 15:10 15.5 73 320.2 0 0.0 0.9 3.3 45
23/05/2020 15:20 15.8 71 336.3 76 0.0 1.3 4.7 26
23/05/2020 15:30 16.6 71 740.1 572 0.0 0.9 3.2 8
23/05/2020 15:40 16.3 67 574.6 476 0.0 1.5 5.5 4
23/05/2020 15:50 15.9 66 326.7 98 0.0 1.0 3.7 346
23/05/2020 16:00 15.3 69 260.1 18 0.0 1.0 3.6 241
23/05/2020 16:10 15.7 69 252.7 6 0.0 1.3 4.7 20
23/05/2020 16:20 15.3 70 190.2 0 0.0 2.1 7.6 346
23/05/2020 16:30 14.5 74 165.2 0 0.0 1.8 6.4 346
23/05/2020 16:40 14.3 75 109.1 0 0.0 2.1 7.6 338
23/05/2020 16:50 14.1 76 90.2 0 0.0 2.5 9.0 337
23/05/2020 17:00 13.7 78 89.6 0 0.0 2.3 8.4 332
23/05/2020 17:10 13.7 77 106.8 0 0.0 1.7 6.3 328
23/05/2020 17:20 14.0 77 114.1 0 0.0 1.0 3.5 303
23/05/2020 17:30 14.2 72 108.0 0 0.0 1.4 5.1 339
23/05/2020 17:40 14.1 71 96.8 0 0.0 1.6 5.8 331
23/05/2020 17:50 14.1 72 96.5 0 0.0 2.6 9.4 335
23/05/2020 18:00 13.7 73 84.8 0 0.0 3.6 12.9 331
23/05/2020 18:10 13.5 74 103.0 114 0.0 3.5 12.6 334
23/05/2020 18:20 13.7 72 201.0 554 0.0 3.1 11.1 333
23/05/2020 18:30 13.5 72 91.1 36 0.0 2.0 7.1 336
23/05/2020 18:40 13.0 72 60.5 58 0.0 2.9 10.5 335
23/05/2020 18:50 12.5 72 36.0 0 0.0 2.8 10.1 330
23/05/2020 19:00 12.3 73 26.1 0 0.0 2.8 10.2 334
23/05/2020 19:10 12.1 74 15.4 0 0.0 1.8 6.5 336
23/05/2020 19:20 11.8 75 0.0 0 0.0 2.0 7.2 333
23/05/2020 19:30 11.8 76 0.0 0 0.0 1.6 5.8 328
23/05/2020 19:40 11.5 77 0.0 0 0.0 0.8 3.0 324
23/05/2020 19:50 11.3 79 0.0 0 0.0 0.9 3.1 319
23/05/2020 20:00 10.8 81 0.0 0 0.0 1.0 3.6 317
23/05/2020 20:10 10.4 83 0.0 0 0.0 0.6 2.3 307
23/05/2020 20:20 10.1 85 0.0 0 0.0 0.6 2.3 286
23/05/2020 20:30 10.1 87 0.0 0 0.0 0.6 2.2 285
23/05/2020 20:40 10.1 86 0.0 0 0.0 0.6 2.1 292
23/05/2020 20:50 10.3 86 0.0 0 0.0 0.5 1.8 286
23/05/2020 21:00 10.3 86 0.0 0 0.0 0.7 2.5 309
23/05/2020 21:10 10.4 86 0.0 0 0.0 0.5 1.9 288
23/05/2020 21:20 10.6 85 0.0 0 0.0 0.6 2.3 303
23/05/2020 21:30 10.7 85 0.0 0 0.0 0.5 1.8 309
23/05/2020 21:40 10.7 85 0.0 0 0.0 0.8 3.0 280
23/05/2020 21:50 10.8 85 0.0 0 0.0 0.8 3.0 292
23/05/2020 22:00 11.0 86 0.0 0 0.0 0.4 1.3 54
23/05/2020 22:10 10.9 85 0.0 0 0.0 0.3 1.0 293
23/05/2020 22:20 10.6 87 0.0 0 0.0 0.4 1.3 272
23/05/2020 22:30 10.4 88 0.0 0 0.0 0.8 2.7 295
23/05/2020 22:40 10.6 86 0.0 0 0.0 0.6 2.3 291
23/05/2020 22:50 10.5 87 0.0 0 0.0 0.4 1.3 302
23/05/2020 23:00 10.3 87 0.0 0 0.0 0.7 2.6 303
23/05/2020 23:10 10.2 87 0.0 0 0.0 0.5 1.7 318
23/05/2020 23:20 10.0 87 0.0 0 0.0 0.5 1.9 314
23/05/2020 23:30 9.7 88 0.0 0 0.0 0.6 2.1 317
23/05/2020 23:40 9.6 89 0.0 0 0.0 0.9 3.3 307
23/05/2020 23:50 9.5 90 0.0 0 0.0 0.6 2.3 283
Anterior Página 1 de 1 Siguiente

NOTA: Tipo de datos según el color:
   - Valores diarios o 10 minutos correctos
   - Valores diarios calculados a partir de un número de datos 10 minutos menor que 144 y mayor que 120, o de un número de datos semihorarios menor que 48 y mayor que 40 (caso de las estaciones de INTIA y del Ministerio)
   - Valores diez minutos estimados


Contacto        Enlaces        Aviso legal